createdAt,value
2018-01-23T00:00:54.116Z,31.95
2018-01-23T00:03:22.797Z,26.15
2018-01-23T00:05:51.477Z,27.42
2018-01-23T00:08:20.166Z,27.73
2018-01-23T00:10:48.853Z,27.48
2018-01-23T00:13:17.536Z,28.10
2018-01-23T00:15:46.232Z,28.73
2018-01-23T00:18:14.929Z,28.83
2018-01-23T00:20:43.608Z,27.15
2018-01-23T00:23:12.297Z,28.90
2018-01-23T00:25:40.981Z,28.67
2018-01-23T00:28:09.665Z,28.73
2018-01-23T00:30:38.387Z,28.17
2018-01-23T00:33:07.081Z,27.58
2018-01-23T00:35:35.773Z,28.70
2018-01-23T00:38:04.453Z,28.17
2018-01-23T00:40:33.124Z,25.70
2018-01-23T00:43:01.818Z,30.35
2018-01-23T00:45:30.173Z,28.60
2018-01-23T00:47:58.866Z,29.42
2018-01-23T00:50:27.555Z,28.65
2018-01-23T00:52:56.246Z,29.58
2018-01-23T00:55:24.934Z,27.77
2018-01-23T00:57:53.613Z,27.40
2018-01-23T01:00:22.301Z,28.55
2018-01-23T01:02:50.974Z,25.27
2018-01-23T01:05:19.660Z,26.52
2018-01-23T01:07:48.340Z,25.12
2018-01-23T01:10:17.783Z,25.75
2018-01-23T01:12:47.236Z,29.02
2018-01-23T01:15:16.681Z,27.85
2018-01-23T01:17:45.362Z,27.20
2018-01-23T01:20:14.044Z,27.00
2018-01-23T01:22:42.729Z,30.20
2018-01-23T01:25:11.423Z,28.73
2018-01-23T01:27:40.109Z,26.80
2018-01-23T01:30:08.785Z,27.73
2018-01-23T01:32:37.461Z,26.50
2018-01-23T01:35:06.902Z,26.75
2018-01-23T01:37:35.588Z,29.30
2018-01-23T01:40:03.932Z,30.25
2018-01-23T01:42:32.824Z,28.92
2018-01-23T01:45:01.941Z,28.45
2018-01-23T01:47:30.626Z,28.35
2018-01-23T01:49:59.318Z,28.62
2018-01-23T01:52:28.009Z,27.95
2018-01-23T01:54:56.757Z,30.23
2018-01-23T01:57:26.206Z,27.30
2018-01-23T01:59:54.941Z,30.73
2018-01-23T02:02:23.778Z,26.58
2018-01-23T02:04:52.452Z,28.60
2018-01-23T02:07:21.136Z,29.23
2018-01-23T02:09:49.818Z,29.10
2018-01-23T02:12:18.515Z,30.65
2018-01-23T02:14:47.198Z,29.02
2018-01-23T02:17:15.880Z,29.87
2018-01-23T02:19:44.234Z,28.62
2018-01-23T02:22:12.916Z,28.52
2018-01-23T02:24:41.588Z,31.00
2018-01-23T02:27:10.266Z,30.27
2018-01-23T02:29:38.944Z,30.70
2018-01-23T02:32:07.624Z,27.40
2018-01-23T02:34:36.362Z,32.53
2018-01-23T02:37:05.806Z,30.05
2018-01-23T02:39:34.476Z,29.50
2018-01-23T02:42:03.153Z,28.55
2018-01-23T02:44:31.842Z,29.30
2018-01-23T02:47:00.515Z,30.75
2018-01-23T02:49:29.977Z,33.75
2018-01-23T02:51:58.662Z,32.33
2018-01-23T02:54:27.336Z,28.33
2018-01-23T02:56:56.022Z,30.95
2018-01-23T02:59:24.714Z,31.73
2018-01-23T03:01:53.925Z,30.52
2018-01-23T03:04:22.608Z,27.62
2018-01-23T03:06:51.288Z,27.23
2018-01-23T03:09:19.972Z,26.95
2018-01-23T03:11:48.644Z,28.50
2018-01-23T03:14:17.312Z,26.30
2018-01-23T03:16:46.752Z,26.05
2018-01-23T03:19:15.252Z,25.70
2018-01-23T03:21:43.932Z,24.70
2018-01-23T03:24:12.612Z,22.08
2018-01-23T03:26:41.297Z,23.52
2018-01-23T03:29:09.972Z,23.35
2018-01-23T03:31:38.649Z,23.85
2018-01-23T03:34:07.330Z,20.45
2018-01-23T03:36:36.010Z,20.77
2018-01-23T03:39:03.884Z,21.23
2018-01-23T03:41:32.725Z,20.25
2018-01-23T03:44:01.409Z,20.45
2018-01-23T03:46:30.093Z,20.48
2018-01-23T03:48:58.979Z,20.77
2018-01-23T03:51:27.676Z,21.35
2018-01-23T03:53:56.370Z,19.27
2018-01-23T03:56:25.061Z,21.02
2018-01-23T03:58:53.753Z,20.52
2018-01-23T04:01:23.204Z,19.50
2018-01-23T04:03:51.897Z,21.55
2018-01-23T04:06:20.570Z,21.70
2018-01-23T04:08:49.249Z,21.95
2018-01-23T04:11:17.929Z,21.30
2018-01-23T04:13:46.618Z,21.70
2018-01-23T04:16:15.297Z,19.12
2018-01-23T04:18:44.740Z,18.33
2018-01-23T04:21:13.445Z,20.83
2018-01-23T04:23:42.129Z,19.60
2018-01-23T04:26:10.813Z,20.70
2018-01-23T04:28:39.493Z,20.70
2018-01-23T04:31:08.176Z,23.98
2018-01-23T04:33:36.898Z,24.30
2018-01-23T04:36:05.244Z,22.98
2018-01-23T04:38:33.921Z,22.30
2018-01-23T04:41:03.621Z,25.25
2018-01-23T04:43:32.305Z,24.63
2018-01-23T04:46:00.982Z,26.67
2018-01-23T04:48:29.658Z,30.30
2018-01-23T04:50:59.116Z,27.90
2018-01-23T04:53:27.796Z,29.87
2018-01-23T04:55:56.483Z,29.25
2018-01-23T04:58:25.168Z,29.15
2018-01-23T05:00:53.860Z,30.30
2018-01-23T05:03:22.540Z,29.25
2018-01-23T05:05:51.228Z,29.30
2018-01-23T05:08:19.915Z,28.67
2018-01-23T05:10:48.605Z,18.80
2018-01-23T05:13:17.275Z,17.00
2018-01-23T05:15:45.971Z,12.07
2018-01-23T05:18:14.149Z,9.07
2018-01-23T05:20:42.829Z,9.27
2018-01-23T05:23:11.518Z,8.93
2018-01-23T05:25:40.202Z,8.60
2018-01-23T05:28:08.872Z,7.55
2018-01-23T05:30:37.550Z,7.03
2018-01-23T05:33:06.224Z,7.25
2018-01-23T05:35:35.658Z,6.82
2018-01-23T05:38:04.329Z,8.18
2018-01-23T05:40:33.775Z,6.62
2018-01-23T05:43:02.469Z,6.87
2018-01-23T05:45:31.155Z,7.72
2018-01-23T05:47:59.499Z,7.50
2018-01-23T05:50:28.976Z,5.85
2018-01-23T05:52:58.414Z,6.87
2018-01-23T05:55:27.086Z,6.12
2018-01-23T07:22:53.834Z,8.88
2018-01-23T07:25:22.530Z,9.05
2018-01-23T07:27:51.205Z,9.68
2018-01-23T07:30:19.889Z,9.27
2018-01-23T07:32:48.576Z,10.93
2018-01-23T07:35:17.089Z,10.90
2018-01-23T07:37:45.778Z,10.05
2018-01-23T07:40:14.454Z,9.85
2018-01-23T07:42:43.127Z,12.45
2018-01-23T07:45:11.812Z,10.15
2018-01-23T07:47:40.488Z,11.63
2018-01-23T07:50:09.178Z,11.25
2018-01-23T07:52:37.856Z,12.52
2018-01-23T07:55:06.541Z,12.60
2018-01-23T07:57:35.996Z,13.38
2018-01-23T08:00:04.358Z,12.52
2018-01-23T08:02:33.061Z,12.75
2018-01-23T08:05:01.749Z,13.43
2018-01-23T08:07:30.445Z,13.35
2018-01-23T08:09:59.126Z,14.63
2018-01-23T08:12:27.817Z,15.80
2018-01-23T08:14:56.488Z,15.55
2018-01-23T08:17:24.973Z,15.18
2018-01-23T08:19:53.653Z,16.02
2018-01-23T08:22:22.345Z,15.98
2018-01-23T08:24:51.033Z,16.15
2018-01-23T08:27:19.728Z,14.40
2018-01-23T08:29:48.422Z,16.15
2018-01-23T08:32:17.100Z,17.35
2018-01-23T08:34:45.781Z,15.30
2018-01-23T08:37:14.469Z,15.32
2018-01-23T08:39:42.812Z,11.80
2018-01-23T08:42:11.497Z,17.02
2018-01-23T08:44:40.186Z,22.58
2018-01-23T08:47:08.869Z,23.40
2018-01-23T08:49:37.553Z,17.25
2018-01-23T08:52:06.670Z,15.98
2018-01-23T08:54:35.019Z,15.48
2018-01-23T08:57:04.486Z,16.90
2018-01-23T08:59:33.161Z,15.38
2018-01-23T09:02:01.851Z,15.25
2018-01-23T09:04:30.538Z,18.23
2018-01-23T09:06:59.985Z,16.35
2018-01-23T09:09:28.660Z,15.13
2018-01-23T09:11:57.341Z,16.75
2018-01-23T09:14:26.028Z,15.80
2018-01-23T09:16:54.714Z,15.50
2018-01-23T09:19:23.403Z,16.50
2018-01-23T09:21:52.358Z,16.98
2018-01-23T09:24:21.041Z,18.12
2018-01-23T09:26:49.716Z,16.73
2018-01-23T09:29:18.402Z,18.10
2018-01-23T09:31:47.082Z,17.80
2018-01-23T09:34:15.771Z,17.30
2018-01-23T09:36:44.453Z,17.27
2018-01-23T09:39:13.125Z,16.65
2018-01-23T09:41:42.902Z,15.05
2018-01-23T09:44:11.585Z,15.73
2018-01-23T09:46:40.263Z,17.10
2018-01-23T09:49:08.944Z,15.73
2018-01-23T09:51:37.633Z,17.80
2018-01-23T09:54:06.320Z,16.73
2018-01-23T09:56:35.011Z,16.00
2018-01-23T09:59:04.429Z,14.52
2018-01-23T10:01:35.322Z,15.68
2018-01-23T10:04:04.005Z,15.32
2018-01-23T10:06:32.697Z,15.40
2018-01-23T10:09:01.376Z,15.35
2018-01-23T10:11:30.067Z,16.35
2018-01-23T10:13:58.754Z,16.35
2018-01-23T10:16:27.440Z,14.73
2018-01-23T10:18:56.138Z,16.40
2018-01-23T10:21:24.808Z,15.65
2018-01-23T10:23:53.311Z,18.00
2018-01-23T10:26:22.013Z,15.93
2018-01-23T10:28:50.702Z,17.35
2018-01-23T10:31:19.377Z,16.42
2018-01-23T10:33:48.063Z,16.52
2018-01-23T10:36:16.740Z,16.30
2018-01-23T10:38:45.243Z,17.20
2018-01-23T10:41:13.930Z,17.85
2018-01-23T10:43:42.621Z,17.58
2018-01-23T10:46:11.305Z,20.27
2018-01-23T10:48:39.993Z,16.87
2018-01-23T10:51:08.679Z,16.70
2018-01-23T10:53:37.368Z,16.08
2018-01-23T10:56:06.056Z,17.08
2018-01-23T10:58:34.741Z,18.35
2018-01-23T11:01:06.117Z,17.80
2018-01-23T11:03:34.805Z,17.60
2018-01-23T11:06:03.497Z,18.58
2018-01-23T11:08:31.841Z,17.62
2018-01-23T11:11:00.527Z,16.58
2018-01-23T11:13:29.270Z,17.92
2018-01-23T11:15:58.728Z,16.70
2018-01-23T11:18:27.412Z,16.05
2018-01-23T11:20:56.866Z,15.45
2018-01-23T11:23:26.349Z,16.40
2018-01-23T11:25:55.045Z,17.00
2018-01-23T11:28:23.728Z,16.40
2018-01-23T11:30:52.466Z,15.32
2018-01-23T11:33:21.297Z,15.15
2018-01-23T11:35:49.972Z,16.05
2018-01-23T11:38:18.661Z,17.52
2018-01-23T11:40:47.343Z,16.92
2018-01-23T11:43:16.032Z,16.70
2018-01-23T11:45:44.807Z,16.10
2018-01-23T11:48:14.197Z,18.05
2018-01-23T11:50:42.955Z,17.20
2018-01-23T11:53:12.405Z,16.73
2018-01-23T11:55:41.112Z,15.50
2018-01-23T11:58:10.393Z,17.85
2018-01-23T12:00:38.917Z,16.35
2018-01-23T12:03:07.602Z,16.27
2018-01-23T12:05:36.114Z,17.17
2018-01-23T12:08:04.609Z,18.17
2018-01-23T12:10:33.286Z,17.05
2018-01-23T12:13:01.985Z,19.80
2018-01-23T12:15:30.669Z,18.50
2018-01-23T12:17:59.356Z,18.75
2018-01-23T12:20:28.027Z,16.35
2018-01-23T12:22:56.711Z,19.42
2018-01-23T12:25:25.402Z,16.62
2018-01-23T12:27:55.032Z,16.70
2018-01-23T12:30:23.718Z,18.17
2018-01-23T12:32:52.950Z,15.95
2018-01-23T12:35:21.686Z,18.95
2018-01-23T12:37:50.377Z,18.33
2018-01-23T12:40:19.071Z,19.45
2018-01-23T12:42:47.758Z,22.50
2018-01-23T12:45:16.446Z,18.17
2018-01-23T12:47:45.125Z,20.10
2018-01-23T12:50:13.811Z,21.62
2018-01-23T12:52:43.245Z,20.42
2018-01-23T12:55:11.933Z,19.35
2018-01-23T12:57:40.624Z,21.55
2018-01-23T13:00:09.031Z,19.58
2018-01-23T13:02:37.726Z,19.60
2018-01-23T13:05:06.408Z,20.23
2018-01-23T13:07:35.094Z,19.80
2018-01-23T13:10:03.462Z,20.67
2018-01-23T13:12:32.158Z,19.25
2018-01-23T13:15:00.841Z,17.37
2018-01-23T13:17:29.525Z,18.05
2018-01-23T13:19:57.877Z,18.25
2018-01-23T13:22:27.214Z,17.65
2018-01-23T13:24:55.569Z,18.00
2018-01-23T13:27:24.254Z,19.20
2018-01-23T13:29:52.936Z,19.40
2018-01-23T13:32:21.638Z,18.50
2018-01-23T13:34:50.345Z,18.42
2018-01-23T13:37:19.034Z,17.73
2018-01-23T13:39:47.721Z,19.27
2018-01-23T13:42:16.069Z,16.80
2018-01-23T13:44:44.940Z,14.10
2018-01-23T13:47:15.040Z,12.02
2018-01-23T13:49:43.713Z,13.35
2018-01-23T13:52:13.169Z,13.62
2018-01-23T13:54:42.132Z,11.70
2018-01-23T13:57:10.484Z,12.40
2018-01-23T13:59:39.934Z,12.95
2018-01-23T14:02:08.620Z,12.45
2018-01-23T14:04:37.297Z,12.88
2018-01-23T14:07:05.982Z,12.05
2018-01-23T14:09:34.661Z,11.00
2018-01-23T14:12:03.342Z,12.57
2018-01-23T14:14:32.035Z,11.93
2018-01-23T14:17:00.721Z,13.82
2018-01-23T14:19:29.393Z,12.40
2018-01-23T14:21:58.846Z,12.88
2018-01-23T14:24:27.801Z,12.30
2018-01-23T14:26:56.485Z,14.25
2018-01-23T14:29:25.167Z,12.50
2018-01-23T14:31:54.618Z,13.45
2018-01-23T14:34:23.298Z,12.70
2018-01-23T14:36:51.985Z,13.62
2018-01-23T14:39:20.660Z,13.95
2018-01-23T14:41:49.337Z,12.48
2018-01-23T14:44:18.024Z,13.27
2018-01-23T14:46:46.707Z,13.02
2018-01-23T14:49:15.389Z,13.32
2018-01-23T14:51:44.085Z,11.55
2018-01-23T14:54:12.770Z,12.45
2018-01-23T14:56:41.461Z,12.73
2018-01-23T14:59:39.558Z,10.65
2018-01-23T15:10:41.354Z,11.98
2018-01-23T15:13:10.149Z,12.45
2018-01-23T15:21:06.321Z,10.98
2018-01-23T15:26:32.654Z,11.05
2018-01-23T15:32:23.594Z,11.10
2018-01-23T15:34:55.231Z,10.20
2018-01-23T15:40:02.270Z,11.23
2018-01-23T15:42:30.961Z,10.85
2018-01-23T15:45:00.602Z,10.98
2018-01-23T15:47:29.302Z,9.93
2018-01-23T15:49:58.590Z,10.50
2018-01-23T15:52:27.284Z,11.05
2018-01-23T15:54:55.996Z,12.05
2018-01-23T15:57:24.689Z,10.52
2018-01-23T15:59:53.385Z,10.65
2018-01-23T16:02:22.070Z,11.77
2018-01-23T16:04:50.761Z,25.08
2018-01-23T16:07:19.453Z,20.33
2018-01-23T16:09:48.670Z,11.12
2018-01-23T16:12:17.529Z,11.32
2018-01-23T16:14:46.212Z,11.10
2018-01-23T16:17:14.901Z,11.27
2018-01-23T16:19:43.593Z,11.68
2018-01-23T16:22:12.583Z,11.70
2018-01-23T16:24:41.592Z,11.07
2018-01-23T16:27:09.940Z,11.27
2018-01-23T16:29:39.392Z,12.15
2018-01-23T16:32:08.081Z,12.85
2018-01-23T16:34:37.047Z,11.10
2018-01-23T16:37:05.740Z,12.13
2018-01-23T16:39:34.441Z,11.60
2018-01-23T16:42:03.382Z,11.10
2018-01-23T16:44:33.135Z,11.70
2018-01-23T16:47:01.873Z,11.07
2018-01-23T16:49:30.746Z,11.60
2018-01-23T16:51:59.477Z,12.32
2018-01-23T16:54:29.954Z,12.13
2018-01-23T16:56:58.657Z,12.40
2018-01-23T16:59:27.161Z,12.20
2018-01-23T17:01:55.865Z,12.30
2018-01-23T17:04:30.628Z,13.23
2018-01-23T17:06:59.341Z,11.18
2018-01-23T17:09:28.049Z,12.70
2018-01-23T17:11:56.730Z,12.13
2018-01-23T17:14:27.314Z,13.05
2018-01-23T17:16:56.481Z,13.90
2018-01-23T17:19:25.952Z,14.02
2018-01-23T17:21:54.657Z,12.65
2018-01-23T17:24:24.134Z,13.10
2018-01-23T17:26:52.844Z,14.90
2018-01-23T17:29:21.211Z,14.63
2018-01-23T17:31:51.266Z,13.65
2018-01-23T17:34:20.754Z,14.82
2018-01-23T17:36:50.224Z,14.13
2018-01-23T17:39:19.042Z,14.55
2018-01-23T17:41:47.741Z,15.48
2018-01-23T17:44:16.706Z,14.38
2018-01-23T17:49:25.956Z,14.15
2018-01-23T17:51:54.637Z,15.45
2018-01-23T17:54:26.097Z,14.30
2018-01-23T17:56:54.848Z,13.32
2018-01-23T17:59:23.682Z,13.95
2018-01-23T18:01:52.368Z,14.25
2018-01-23T18:04:21.040Z,14.68
2018-01-23T18:06:50.209Z,12.93
2018-01-23T18:09:18.922Z,20.35
2018-01-23T18:11:48.828Z,13.13
2018-01-23T18:14:27.086Z,12.27
2018-01-23T18:16:56.685Z,12.85
2018-01-23T18:19:26.264Z,13.38
2018-01-23T18:21:54.950Z,13.88
2018-01-23T18:24:23.669Z,14.20
2018-01-23T18:26:52.439Z,13.50
2018-01-23T18:29:21.138Z,12.27
2018-01-23T18:31:49.884Z,11.65
2018-01-23T18:34:19.717Z,11.80
2018-01-23T18:36:49.377Z,11.90
2018-01-23T18:39:18.129Z,11.27
2018-01-23T18:41:47.379Z,10.85
2018-01-23T18:44:16.099Z,11.27
2018-01-23T18:46:45.149Z,10.43
2018-01-23T18:49:14.616Z,9.73
2018-01-23T18:51:43.453Z,12.00
2018-01-23T18:54:12.377Z,10.32
2018-01-23T18:56:41.074Z,11.23
2018-01-23T18:59:10.505Z,11.38
2018-01-23T19:01:39.216Z,12.10
2018-01-23T19:04:08.677Z,11.88
2018-01-23T19:06:37.361Z,9.45
2018-01-23T19:09:05.720Z,10.90
2018-01-23T19:11:34.436Z,11.80
2018-01-23T19:14:03.126Z,10.02
2018-01-23T19:16:31.805Z,9.70
2018-01-23T19:19:00.737Z,9.30
2018-01-23T19:21:32.372Z,10.00
2018-01-23T19:24:01.090Z,10.60
2018-01-23T19:26:30.492Z,10.00
2018-01-23T19:28:59.400Z,10.30
2018-01-23T19:31:29.313Z,9.27
2018-01-23T19:33:58.561Z,8.70
2018-01-23T19:36:28.171Z,8.50
2018-01-23T19:38:57.566Z,9.23
2018-01-23T19:41:26.257Z,9.05
2018-01-23T19:43:55.830Z,9.57
2018-01-23T19:46:24.512Z,8.68
2018-01-23T19:48:54.457Z,9.45
2018-01-23T19:51:23.142Z,8.50
2018-01-23T19:53:51.837Z,8.20
2018-01-23T19:56:21.900Z,9.07
2018-01-23T19:58:51.610Z,8.85
2018-01-23T20:01:20.400Z,8.13
2018-01-23T20:03:49.884Z,9.45
2018-01-23T20:06:19.064Z,7.82
2018-01-23T20:08:49.781Z,7.82
2018-01-23T20:11:19.448Z,7.82
2018-01-23T20:13:49.571Z,8.23
2018-01-23T20:16:19.005Z,6.80
2018-01-23T20:21:22.769Z,8.25
2018-01-23T20:23:52.511Z,7.50
2018-01-23T20:26:21.941Z,5.80
2018-01-23T20:28:50.909Z,7.10
2018-01-23T20:31:20.355Z,6.25
2018-01-23T20:33:49.084Z,5.50
2018-01-23T20:36:17.759Z,6.00
2018-01-23T20:38:47.407Z,5.85
2018-01-23T20:41:16.958Z,5.55
2018-01-23T20:43:45.620Z,4.78
2018-01-23T20:46:14.438Z,6.03
2018-01-23T20:48:43.983Z,5.87
2018-01-23T20:51:13.918Z,6.05
2018-01-23T20:53:42.600Z,5.12
2018-01-23T20:56:12.194Z,4.30
2018-01-23T20:58:40.889Z,4.72
2018-01-23T21:01:10.320Z,5.20
2018-01-23T21:03:38.648Z,4.40
2018-01-23T21:06:07.316Z,4.57
2018-01-23T21:08:36.361Z,4.53
2018-01-23T21:11:06.471Z,4.65
2018-01-23T21:13:37.157Z,4.50
2018-01-23T21:16:06.589Z,4.72
2018-01-23T21:18:36.583Z,5.03
2018-01-23T21:21:06.026Z,4.68
2018-01-23T21:23:35.278Z,4.45
2018-01-23T21:26:03.937Z,4.30
2018-01-23T21:28:32.849Z,6.93
2018-01-23T21:31:02.479Z,5.15
2018-01-23T21:33:31.153Z,4.78
2018-01-23T21:35:59.836Z,8.52
2018-01-23T21:38:28.533Z,22.85
2018-01-23T21:40:58.005Z,8.82
2018-01-23T21:43:26.017Z,5.62
2018-01-23T21:45:54.356Z,5.82
2018-01-23T21:48:23.021Z,4.45
2018-01-23T21:50:52.476Z,7.07
2018-01-23T21:53:21.777Z,8.35
2018-01-23T21:55:50.125Z,8.65
2018-01-23T21:58:18.804Z,8.02
2018-01-23T22:00:48.245Z,8.63
2018-01-23T22:03:16.922Z,8.05
2018-01-23T22:05:45.610Z,9.63
2018-01-23T22:08:14.296Z,6.95
2018-01-23T22:10:42.969Z,7.20
2018-01-23T22:13:11.635Z,8.48
2018-01-23T22:15:41.080Z,9.10
2018-01-23T22:18:09.578Z,9.43
2018-01-23T22:20:38.267Z,9.43
2018-01-23T22:23:06.957Z,11.10
2018-01-23T22:25:35.646Z,10.57
2018-01-23T22:28:04.340Z,12.32
2018-01-23T22:30:32.700Z,12.18
2018-01-23T22:33:01.396Z,13.30
2018-01-23T22:35:30.086Z,12.65
2018-01-23T22:37:58.782Z,14.05
2018-01-23T22:40:27.469Z,13.38
2018-01-23T22:42:56.148Z,14.40
2018-01-23T22:45:24.842Z,16.27
2018-01-23T22:47:53.520Z,16.40
2018-01-23T22:50:23.130Z,56.92
2018-01-23T22:52:51.813Z,20.67
2018-01-23T23:42:02.542Z,17.60
2018-01-23T23:44:31.999Z,19.35
2018-01-23T23:47:00.676Z,19.75
2018-01-23T23:49:29.352Z,17.73
2018-01-23T23:51:58.032Z,18.67
2018-01-23T23:54:26.909Z,19.50
2018-01-23T23:56:56.357Z,17.73
2018-01-23T23:59:25.038Z,18.15
